createdAt,value
2023-04-04T00:02:47.905Z,1518
2023-04-04T00:08:18.293Z,1524
2023-04-04T00:13:48.759Z,1544
2023-04-04T00:19:19.342Z,1571
2023-04-04T00:24:49.851Z,1563
2023-04-04T00:30:19.345Z,1572
2023-04-04T00:35:49.973Z,1627
2023-04-04T00:41:20.449Z,1611
2023-04-04T00:46:49.877Z,1626
2023-04-04T00:52:20.368Z,1622
2023-04-04T00:57:49.883Z,1617
2023-04-04T01:03:20.327Z,1622
2023-04-04T01:08:51.122Z,1590
2023-04-04T01:14:21.398Z,1610
2023-04-04T01:19:51.911Z,1615
2023-04-04T01:25:22.370Z,1634
2023-04-04T01:30:53.070Z,1632
2023-04-04T01:36:23.607Z,1633
2023-04-04T01:41:53.028Z,1637
2023-04-04T01:47:23.612Z,1643
2023-04-04T01:52:54.019Z,1650
2023-04-04T01:58:23.514Z,1673
2023-04-04T02:03:54.028Z,1698
2023-04-04T02:09:24.464Z,1729
2023-04-04T02:14:53.945Z,1721
2023-04-04T02:20:24.449Z,1672
2023-04-04T02:25:53.934Z,1657
2023-04-04T02:31:24.438Z,1647
2023-04-04T02:38:00.972Z,1639
2023-04-04T02:43:31.559Z,1665
2023-04-04T02:49:02.051Z,1647
2023-04-04T02:54:32.645Z,1626
2023-04-04T03:00:03.228Z,1626
2023-04-04T03:05:33.588Z,1638
2023-04-04T03:11:04.212Z,1638
2023-04-04T03:22:05.149Z,1707
2023-04-04T03:27:34.630Z,1703
2023-04-04T03:33:05.109Z,1697
2023-04-04T03:38:34.603Z,1704
2023-04-04T03:44:05.203Z,1723
2023-04-04T03:49:35.713Z,1726
2023-04-04T03:55:06.217Z,1707
2023-04-04T04:00:35.654Z,1712
2023-04-04T04:06:06.127Z,1708
2023-04-04T04:11:35.626Z,1706
2023-04-04T04:17:06.124Z,1706
2023-04-04T04:22:36.564Z,1672
2023-04-04T04:28:06.052Z,1672
2023-04-04T04:33:36.531Z,1683
2023-04-04T04:39:07.031Z,1680
2023-04-04T04:44:36.494Z,1692
2023-04-04T04:50:06.959Z,1704
2023-04-04T04:55:37.557Z,1718
2023-04-04T05:01:08.058Z,1711
2023-04-04T05:06:38.615Z,1623
2023-04-04T05:12:08.135Z,1582
2023-04-04T05:17:38.617Z,1541
2023-04-04T05:23:09.079Z,1499
2023-04-04T05:28:39.713Z,1472
2023-04-04T05:34:10.159Z,1454
2023-04-04T05:39:40.652Z,1419
2023-04-04T05:45:11.340Z,1404
2023-04-04T05:50:42.171Z,1393
2023-04-04T05:56:11.327Z,1385
2023-04-04T06:01:41.782Z,1376
2023-04-04T06:07:12.303Z,1359
2023-04-04T06:12:42.868Z,1343
2023-04-04T06:19:21.433Z,1333
2023-04-04T06:24:48.942Z,1319
2023-04-04T06:30:19.682Z,1292
2023-04-04T06:35:49.911Z,1257
2023-04-04T06:41:19.377Z,1206
2023-04-04T06:46:49.871Z,1142
2023-04-04T06:52:20.298Z,1086
2023-04-04T06:57:49.823Z,1025
2023-04-04T07:03:20.388Z,970
2023-04-04T07:08:50.800Z,939
2023-04-04T07:14:21.384Z,901
2023-04-04T07:19:52.027Z,878
2023-04-04T07:25:22.518Z,843
2023-04-04T07:30:52.938Z,837
2023-04-04T07:36:23.446Z,811
2023-04-04T07:41:53.964Z,798
2023-04-04T07:47:24.575Z,790
2023-04-04T07:52:54.023Z,775
2023-04-04T07:58:24.787Z,762
2023-04-04T08:03:55.174Z,746
2023-04-04T08:09:24.550Z,727
2023-04-04T08:14:55.006Z,723
2023-04-04T08:20:24.514Z,703
2023-04-04T08:25:54.967Z,682
2023-04-04T08:31:25.491Z,672
2023-04-04T08:36:56.037Z,655
2023-04-04T08:42:26.503Z,646
2023-04-04T08:47:56.999Z,635
2023-04-04T08:53:27.585Z,629
2023-04-04T08:58:58.241Z,631
2023-04-04T09:04:28.719Z,631
2023-04-04T09:09:59.271Z,627
2023-04-04T09:15:29.836Z,627
2023-04-04T09:20:59.248Z,626
2023-04-04T09:26:29.986Z,623
2023-04-04T09:32:00.197Z,627
2023-04-04T09:37:29.670Z,623
2023-04-04T09:43:00.141Z,622
2023-04-04T09:48:30.611Z,621
2023-04-04T09:54:00.124Z,615
2023-04-04T09:59:30.592Z,622
2023-04-04T10:05:06.002Z,617
2023-04-04T10:10:30.553Z,618
2023-04-04T10:21:31.657Z,605
2023-04-04T10:28:08.225Z,603
2023-04-04T10:33:38.813Z,600
2023-04-04T10:39:09.277Z,593
2023-04-04T10:44:39.770Z,594
2023-04-04T10:50:09.244Z,587
2023-04-04T10:55:39.901Z,589
2023-04-04T11:01:10.224Z,594
2023-04-04T11:06:40.910Z,677
2023-04-04T11:12:11.400Z,670
2023-04-04T11:17:41.880Z,663
2023-04-04T11:23:12.477Z,660
2023-04-04T11:28:42.941Z,655
2023-04-04T11:34:13.568Z,654
2023-04-04T11:39:44.127Z,655
2023-04-04T11:45:14.587Z,661
2023-04-04T11:51:51.271Z,657
2023-04-04T11:57:21.145Z,664
2023-04-04T12:02:51.758Z,662
2023-04-04T12:08:22.271Z,663
2023-04-04T12:13:52.841Z,664
2023-04-04T12:19:23.577Z,662
2023-04-04T12:24:54.169Z,668
2023-04-04T12:30:24.691Z,669
2023-04-04T12:35:55.281Z,663
2023-04-04T12:41:24.677Z,666
2023-04-04T12:46:55.408Z,670
2023-04-04T12:52:25.849Z,669
2023-04-04T12:57:56.351Z,671
2023-04-04T13:03:25.850Z,676
2023-04-04T13:08:56.316Z,677
2023-04-04T13:14:25.820Z,680
2023-04-04T13:19:56.337Z,679
2023-04-04T13:25:26.772Z,679
2023-04-04T13:30:57.551Z,682
2023-04-04T13:36:27.875Z,680
2023-04-04T13:41:58.338Z,680
2023-04-04T13:47:28.991Z,674
2023-04-04T13:52:59.425Z,667
2023-04-04T13:58:28.914Z,666
2023-04-04T14:04:00.598Z,669
2023-04-04T14:09:29.896Z,672
2023-04-04T14:14:59.536Z,672
2023-04-04T14:20:29.841Z,674
2023-04-04T14:25:59.331Z,669
2023-04-04T14:31:29.860Z,664
2023-04-04T14:37:00.305Z,662
2023-04-04T14:42:30.893Z,665
2023-04-04T14:48:01.549Z,665
2023-04-04T14:53:31.973Z,671
2023-04-04T14:59:02.510Z,676
2023-04-04T15:04:33.066Z,673
2023-04-04T15:10:03.500Z,676
2023-04-04T15:15:34.147Z,677
2023-04-04T15:21:04.652Z,672
2023-04-04T15:26:35.269Z,672
2023-04-04T15:32:05.835Z,678
2023-04-04T15:37:36.285Z,677
2023-04-04T15:43:06.779Z,683
2023-04-04T15:48:37.359Z,677
2023-04-04T15:54:07.963Z,683
2023-04-04T15:59:38.583Z,685
2023-04-04T16:05:09.032Z,686
2023-04-04T16:10:39.713Z,686
2023-04-04T16:16:09.108Z,692
2023-04-04T16:21:39.457Z,687
2023-04-04T16:27:08.961Z,687
2023-04-04T16:32:39.469Z,685
2023-04-04T16:38:09.906Z,685
2023-04-04T16:43:39.436Z,689
2023-04-04T16:49:09.910Z,686
2023-04-04T16:54:40.364Z,685
2023-04-04T17:00:10.947Z,682
2023-04-04T17:05:41.429Z,686
2023-04-04T17:11:11.948Z,690
2023-04-04T17:16:41.454Z,694
2023-04-04T17:22:11.941Z,688
2023-04-04T17:27:42.549Z,688
2023-04-04T17:33:13.045Z,688
2023-04-04T17:38:43.480Z,689
2023-04-04T17:44:14.110Z,688
2023-04-04T17:49:44.689Z,689
2023-04-04T17:55:15.157Z,683
2023-04-04T18:00:44.636Z,694
2023-04-04T18:06:15.141Z,699
2023-04-04T18:11:44.640Z,698
2023-04-04T18:17:15.123Z,692
2023-04-04T18:22:45.605Z,695
2023-04-04T18:28:15.231Z,696
2023-04-04T18:33:45.705Z,694
2023-04-04T18:39:16.183Z,694
2023-04-04T18:44:46.808Z,691
2023-04-04T18:50:17.258Z,692
2023-04-04T18:55:47.737Z,687
2023-04-04T19:01:18.351Z,691
2023-04-04T19:06:48.783Z,691
2023-04-04T19:12:19.273Z,692
2023-04-04T19:17:49.924Z,693
2023-04-04T19:23:20.346Z,695
2023-04-04T19:28:49.852Z,694
2023-04-04T19:34:20.329Z,696
2023-04-04T19:39:50.787Z,697
2023-04-04T19:45:20.285Z,696
2023-04-04T19:50:50.745Z,698
2023-04-04T19:56:21.216Z,695
2023-04-04T20:02:00.109Z,698
2023-04-04T20:07:22.340Z,699
2023-04-04T20:12:52.888Z,702
2023-04-04T20:18:23.376Z,714
2023-04-04T20:23:54.153Z,707
2023-04-04T20:29:23.363Z,706
2023-04-04T20:34:54.152Z,844
2023-04-04T20:40:24.301Z,959
2023-04-04T20:45:54.862Z,1033
2023-04-04T20:51:25.360Z,1080
2023-04-04T20:58:02.068Z,1127
2023-04-04T21:03:31.671Z,1151
2023-04-04T21:09:01.276Z,1175
2023-04-04T21:14:31.807Z,1208
2023-04-04T21:20:02.645Z,1204
2023-04-04T21:25:33.211Z,1238
2023-04-04T21:31:03.878Z,1249
2023-04-04T21:36:33.316Z,1273
2023-04-04T21:42:06.984Z,1291
2023-04-04T21:47:32.803Z,1309
2023-04-04T21:53:02.519Z,1343
2023-04-04T21:58:33.035Z,1339
2023-04-04T22:04:03.501Z,1355
2023-04-04T22:09:33.102Z,1375
2023-04-04T22:15:00.766Z,1383
2023-04-04T22:20:31.233Z,1400
2023-04-04T22:26:01.737Z,1412
2023-04-04T22:31:32.357Z,1428
2023-04-04T22:37:02.776Z,1389
2023-04-04T22:42:32.418Z,1432
2023-04-04T22:48:02.879Z,1438
2023-04-04T22:53:33.357Z,1434
2023-04-04T22:59:02.881Z,1486
2023-04-04T23:04:31.373Z,1481
2023-04-04T23:10:02.240Z,1496
2023-04-04T23:15:32.739Z,1506
2023-04-04T23:21:03.206Z,1481
2023-04-04T23:26:32.700Z,1482
2023-04-04T23:32:03.164Z,1485
2023-04-04T23:37:32.860Z,1507
2023-04-04T23:43:03.350Z,1509
2023-04-04T23:48:33.847Z,1520
2023-04-04T23:54:03.292Z,1531
2023-04-04T23:59:32.105Z,1524
